sensor_id;sensor_type;location;lat;lon;timestamp;P1;durP1;ratioP1;P2;durP2;ratioP2
3022;SDS011;1521;53.584;9.938;2022-12-05T00:01:29;46.90;;;21.33;;
3022;SDS011;1521;53.584;9.938;2022-12-05T00:04:02;39.53;;;19.90;;
3022;SDS011;1521;53.584;9.938;2022-12-05T00:06:29;44.60;;;20.90;;
3022;SDS011;1521;53.584;9.938;2022-12-05T00:08:55;43.50;;;19.87;;
3022;SDS011;1521;53.584;9.938;2022-12-05T00:11:23;45.10;;;20.63;;
3022;SDS011;1521;53.584;9.938;2022-12-05T00:13:54;44.20;;;19.97;;
3022;SDS011;1521;53.584;9.938;2022-12-05T00:16:21;37.07;;;19.53;;
3022;SDS011;1521;53.584;9.938;2022-12-05T00:18:48;38.50;;;18.93;;
3022;SDS011;1521;53.584;9.938;2022-12-05T00:21:15;37.10;;;19.20;;
3022;SDS011;1521;53.584;9.938;2022-12-05T00:23:43;38.77;;;19.13;;
3022;SDS011;1521;53.584;9.938;2022-12-05T00:26:08;35.60;;;18.47;;
3022;SDS011;1521;53.584;9.938;2022-12-05T00:28:35;38.90;;;20.20;;
3022;SDS011;1521;53.584;9.938;2022-12-05T00:31:04;38.20;;;20.40;;
3022;SDS011;1521;53.584;9.938;2022-12-05T00:33:32;44.43;;;20.20;;
3022;SDS011;1521;53.584;9.938;2022-12-05T00:36:02;46.17;;;21.50;;
3022;SDS011;1521;53.584;9.938;2022-12-05T00:38:28;39.83;;;19.70;;
3022;SDS011;1521;53.584;9.938;2022-12-05T00:40:54;39.40;;;20.27;;
3022;SDS011;1521;53.584;9.938;2022-12-05T00:43:20;42.37;;;21.57;;
3022;SDS011;1521;53.584;9.938;2022-12-05T00:45:45;36.30;;;19.00;;
3022;SDS011;1521;53.584;9.938;2022-12-05T00:48:11;38.00;;;18.53;;
3022;SDS011;1521;53.584;9.938;2022-12-05T00:50:36;37.33;;;20.13;;
3022;SDS011;1521;53.584;9.938;2022-12-05T00:53:02;39.23;;;19.20;;
3022;SDS011;1521;53.584;9.938;2022-12-05T00:55:28;35.27;;;18.70;;
3022;SDS011;1521;53.584;9.938;2022-12-05T00:57:53;36.70;;;18.73;;
3022;SDS011;1521;53.584;9.938;2022-12-05T01:00:19;34.67;;;17.70;;
3022;SDS011;1521;53.584;9.938;2022-12-05T01:02:44;42.13;;;20.87;;
3022;SDS011;1521;53.584;9.938;2022-12-05T01:05:10;37.73;;;19.13;;
3022;SDS011;1521;53.584;9.938;2022-12-05T01:07:35;38.07;;;18.70;;
3022;SDS011;1521;53.584;9.938;2022-12-05T01:10:01;34.50;;;19.07;;
3022;SDS011;1521;53.584;9.938;2022-12-05T01:12:27;34.13;;;18.93;;
3022;SDS011;1521;53.584;9.938;2022-12-05T01:14:53;38.00;;;19.10;;
3022;SDS011;1521;53.584;9.938;2022-12-05T01:17:18;32.87;;;18.03;;
3022;SDS011;1521;53.584;9.938;2022-12-05T01:19:44;36.67;;;18.90;;
3022;SDS011;1521;53.584;9.938;2022-12-05T01:22:09;35.33;;;18.20;;
3022;SDS011;1521;53.584;9.938;2022-12-05T01:24:35;36.83;;;19.53;;
3022;SDS011;1521;53.584;9.938;2022-12-05T01:27:01;34.80;;;19.10;;
3022;SDS011;1521;53.584;9.938;2022-12-05T01:29:26;36.73;;;19.00;;
3022;SDS011;1521;53.584;9.938;2022-12-05T01:31:52;35.17;;;19.20;;
3022;SDS011;1521;53.584;9.938;2022-12-05T01:34:19;32.10;;;17.43;;
3022;SDS011;1521;53.584;9.938;2022-12-05T01:36:45;34.50;;;18.43;;
3022;SDS011;1521;53.584;9.938;2022-12-05T01:39:11;37.00;;;19.07;;
3022;SDS011;1521;53.584;9.938;2022-12-05T01:41:39;34.07;;;18.23;;
3022;SDS011;1521;53.584;9.938;2022-12-05T01:44:07;38.03;;;19.77;;
3022;SDS011;1521;53.584;9.938;2022-12-05T01:46:51;37.27;;;20.80;;
3022;SDS011;1521;53.584;9.938;2022-12-05T01:49:20;39.73;;;19.17;;
3022;SDS011;1521;53.584;9.938;2022-12-05T01:52:02;35.10;;;18.63;;
3022;SDS011;1521;53.584;9.938;2022-12-05T01:54:31;35.90;;;18.90;;
3022;SDS011;1521;53.584;9.938;2022-12-05T01:57:10;35.70;;;18.70;;
3022;SDS011;1521;53.584;9.938;2022-12-05T01:59:37;30.53;;;18.20;;
3022;SDS011;1521;53.584;9.938;2022-12-05T02:02:06;38.03;;;19.30;;
3022;SDS011;1521;53.584;9.938;2022-12-05T02:04:34;32.43;;;18.37;;
3022;SDS011;1521;53.584;9.938;2022-12-05T02:07:03;33.57;;;17.77;;
3022;SDS011;1521;53.584;9.938;2022-12-05T02:09:29;31.73;;;17.93;;
3022;SDS011;1521;53.584;9.938;2022-12-05T02:11:57;34.10;;;18.20;;
3022;SDS011;1521;53.584;9.938;2022-12-05T02:14:31;39.70;;;19.13;;
3022;SDS011;1521;53.584;9.938;2022-12-05T02:30:59;37.37;;;18.77;;
3022;SDS011;1521;53.584;9.938;2022-12-05T02:33:47;40.33;;;19.83;;
3022;SDS011;1521;53.584;9.938;2022-12-05T02:37:03;38.87;;;20.37;;
3022;SDS011;1521;53.584;9.938;2022-12-05T02:39:22;35.97;;;18.97;;
3022;SDS011;1521;53.584;9.938;2022-12-05T02:42:02;37.13;;;19.67;;
3022;SDS011;1521;53.584;9.938;2022-12-05T02:47:26;39.50;;;21.13;;
3022;SDS011;1521;53.584;9.938;2022-12-05T02:49:56;42.03;;;21.37;;
3022;SDS011;1521;53.584;9.938;2022-12-05T02:52:22;43.93;;;20.17;;
3022;SDS011;1521;53.584;9.938;2022-12-05T02:54:48;44.83;;;21.97;;
3022;SDS011;1521;53.584;9.938;2022-12-05T02:57:17;44.40;;;20.60;;
3022;SDS011;1521;53.584;9.938;2022-12-05T02:59:45;53.33;;;23.53;;
3022;SDS011;1521;53.584;9.938;2022-12-05T03:02:24;45.70;;;22.27;;
3022;SDS011;1521;53.584;9.938;2022-12-05T03:04:54;47.80;;;21.93;;
3022;SDS011;1521;53.584;9.938;2022-12-05T03:07:40;40.93;;;21.07;;
3022;SDS011;1521;53.584;9.938;2022-12-05T03:10:09;44.53;;;21.73;;
3022;SDS011;1521;53.584;9.938;2022-12-05T03:12:38;44.60;;;21.23;;
3022;SDS011;1521;53.584;9.938;2022-12-05T03:15:14;42.10;;;20.93;;
3022;SDS011;1521;53.584;9.938;2022-12-05T03:17:46;49.37;;;20.63;;
3022;SDS011;1521;53.584;9.938;2022-12-05T03:20:21;43.07;;;20.87;;
3022;SDS011;1521;53.584;9.938;2022-12-05T03:22:57;44.43;;;21.47;;
3022;SDS011;1521;53.584;9.938;2022-12-05T03:25:39;48.90;;;22.90;;
3022;SDS011;1521;53.584;9.938;2022-12-05T03:28:27;41.77;;;20.20;;
3022;SDS011;1521;53.584;9.938;2022-12-05T03:31:09;40.40;;;19.43;;
3022;SDS011;1521;53.584;9.938;2022-12-05T03:33:40;44.67;;;20.57;;
3022;SDS011;1521;53.584;9.938;2022-12-05T03:36:13;40.47;;;19.40;;
3022;SDS011;1521;53.584;9.938;2022-12-05T03:38:50;46.87;;;21.30;;
3022;SDS011;1521;53.584;9.938;2022-12-05T03:41:27;45.37;;;22.30;;
3022;SDS011;1521;53.584;9.938;2022-12-05T03:44:04;41.63;;;21.23;;
3022;SDS011;1521;53.584;9.938;2022-12-05T03:49:18;46.93;;;20.97;;
3022;SDS011;1521;53.584;9.938;2022-12-05T03:51:59;40.67;;;21.80;;
3022;SDS011;1521;53.584;9.938;2022-12-05T03:54:41;54.10;;;23.80;;
3022;SDS011;1521;53.584;9.938;2022-12-05T03:59:43;45.13;;;22.30;;
3022;SDS011;1521;53.584;9.938;2022-12-05T04:02:23;46.70;;;21.83;;
3022;SDS011;1521;53.584;9.938;2022-12-05T04:05:20;52.57;;;23.27;;
3022;SDS011;1521;53.584;9.938;2022-12-05T04:08:12;45.80;;;21.80;;
3022;SDS011;1521;53.584;9.938;2022-12-05T04:10:39;47.20;;;22.70;;
3022;SDS011;1521;53.584;9.938;2022-12-05T04:13:29;54.47;;;25.50;;
3022;SDS011;1521;53.584;9.938;2022-12-05T04:15:57;50.67;;;23.57;;
3022;SDS011;1521;53.584;9.938;2022-12-05T04:22:32;49.50;;;23.53;;
3022;SDS011;1521;53.584;9.938;2022-12-05T04:24:59;52.10;;;23.80;;
3022;SDS011;1521;53.584;9.938;2022-12-05T04:30:22;57.07;;;24.77;;
3022;SDS011;1521;53.584;9.938;2022-12-05T04:35:28;51.10;;;25.37;;
3022;SDS011;1521;53.584;9.938;2022-12-05T04:38:16;51.33;;;22.90;;
3022;SDS011;1521;53.584;9.938;2022-12-05T04:40:48;50.90;;;24.70;;
3022;SDS011;1521;53.584;9.938;2022-12-05T04:43:19;46.77;;;22.10;;
3022;SDS011;1521;53.584;9.938;2022-12-05T04:45:46;48.70;;;23.93;;
3022;SDS011;1521;53.584;9.938;2022-12-05T04:48:15;57.00;;;24.80;;
3022;SDS011;1521;53.584;9.938;2022-12-05T04:50:43;51.17;;;24.40;;
3022;SDS011;1521;53.584;9.938;2022-12-05T04:53:11;54.93;;;24.23;;
3022;SDS011;1521;53.584;9.938;2022-12-05T04:55:38;50.67;;;22.30;;
3022;SDS011;1521;53.584;9.938;2022-12-05T04:58:11;55.93;;;24.57;;
3022;SDS011;1521;53.584;9.938;2022-12-05T05:00:49;53.37;;;23.97;;
3022;SDS011;1521;53.584;9.938;2022-12-05T05:03:22;56.00;;;25.50;;
3022;SDS011;1521;53.584;9.938;2022-12-05T05:05:49;50.23;;;23.90;;
3022;SDS011;1521;53.584;9.938;2022-12-05T05:08:18;57.63;;;23.60;;
3022;SDS011;1521;53.584;9.938;2022-12-05T05:11:08;51.50;;;24.60;;
3022;SDS011;1521;53.584;9.938;2022-12-05T05:13:39;52.67;;;23.50;;
3022;SDS011;1521;53.584;9.938;2022-12-05T05:16:05;54.70;;;25.67;;
3022;SDS011;1521;53.584;9.938;2022-12-05T05:18:31;58.33;;;25.03;;
3022;SDS011;1521;53.584;9.938;2022-12-05T05:20:57;51.40;;;23.87;;
3022;SDS011;1521;53.584;9.938;2022-12-05T05:23:23;55.30;;;23.77;;
3022;SDS011;1521;53.584;9.938;2022-12-05T05:25:52;56.50;;;23.97;;
3022;SDS011;1521;53.584;9.938;2022-12-05T05:28:19;59.80;;;25.47;;
3022;SDS011;1521;53.584;9.938;2022-12-05T05:30:45;54.30;;;25.37;;
3022;SDS011;1521;53.584;9.938;2022-12-05T05:33:11;56.20;;;24.30;;
3022;SDS011;1521;53.584;9.938;2022-12-05T05:35:37;57.43;;;24.10;;
3022;SDS011;1521;53.584;9.938;2022-12-05T05:38:03;51.07;;;22.33;;
3022;SDS011;1521;53.584;9.938;2022-12-05T05:40:28;51.53;;;23.33;;
3022;SDS011;1521;53.584;9.938;2022-12-05T05:42:54;59.97;;;24.77;;
3022;SDS011;1521;53.584;9.938;2022-12-05T05:45:20;61.30;;;24.57;;
3022;SDS011;1521;53.584;9.938;2022-12-05T05:47:48;57.30;;;24.37;;
3022;SDS011;1521;53.584;9.938;2022-12-05T05:50:14;61.63;;;25.07;;
3022;SDS011;1521;53.584;9.938;2022-12-05T05:52:40;57.50;;;24.67;;
3022;SDS011;1521;53.584;9.938;2022-12-05T05:55:06;65.93;;;27.53;;
3022;SDS011;1521;53.584;9.938;2022-12-05T05:57:32;67.20;;;26.43;;
3022;SDS011;1521;53.584;9.938;2022-12-05T05:59:58;65.73;;;26.03;;
3022;SDS011;1521;53.584;9.938;2022-12-05T06:02:24;59.53;;;25.33;;
3022;SDS011;1521;53.584;9.938;2022-12-05T06:04:49;62.80;;;26.80;;
3022;SDS011;1521;53.584;9.938;2022-12-05T06:07:15;61.10;;;26.40;;
3022;SDS011;1521;53.584;9.938;2022-12-05T06:09:41;67.30;;;25.57;;
3022;SDS011;1521;53.584;9.938;2022-12-05T06:12:06;67.43;;;25.13;;
3022;SDS011;1521;53.584;9.938;2022-12-05T06:14:32;60.17;;;25.80;;
3022;SDS011;1521;53.584;9.938;2022-12-05T06:16:57;63.30;;;25.97;;
3022;SDS011;1521;53.584;9.938;2022-12-05T06:19:23;63.83;;;25.07;;
3022;SDS011;1521;53.584;9.938;2022-12-05T06:21:49;66.77;;;26.40;;
3022;SDS011;1521;53.584;9.938;2022-12-05T06:24:15;56.97;;;24.03;;
3022;SDS011;1521;53.584;9.938;2022-12-05T06:26:41;71.37;;;27.23;;
3022;SDS011;1521;53.584;9.938;2022-12-05T06:29:07;73.23;;;27.70;;
3022;SDS011;1521;53.584;9.938;2022-12-05T06:31:33;74.83;;;27.30;;
3022;SDS011;1521;53.584;9.938;2022-12-05T06:34:00;79.50;;;27.87;;
3022;SDS011;1521;53.584;9.938;2022-12-05T06:36:29;78.03;;;28.07;;
3022;SDS011;1521;53.584;9.938;2022-12-05T06:38:55;82.83;;;27.90;;
3022;SDS011;1521;53.584;9.938;2022-12-05T06:41:22;76.10;;;27.27;;
3022;SDS011;1521;53.584;9.938;2022-12-05T06:43:54;80.87;;;27.57;;
3022;SDS011;1521;53.584;9.938;2022-12-05T06:46:22;75.87;;;28.20;;
3022;SDS011;1521;53.584;9.938;2022-12-05T06:48:50;83.23;;;26.60;;
3022;SDS011;1521;53.584;9.938;2022-12-05T06:51:17;71.27;;;28.20;;
3022;SDS011;1521;53.584;9.938;2022-12-05T06:53:42;76.10;;;26.70;;
3022;SDS011;1521;53.584;9.938;2022-12-05T06:56:09;85.80;;;28.33;;
3022;SDS011;1521;53.584;9.938;2022-12-05T06:58:37;77.57;;;27.77;;
3022;SDS011;1521;53.584;9.938;2022-12-05T07:01:04;85.30;;;28.70;;
3022;SDS011;1521;53.584;9.938;2022-12-05T07:03:48;79.43;;;28.30;;
3022;SDS011;1521;53.584;9.938;2022-12-05T07:06:14;94.23;;;28.80;;
3022;SDS011;1521;53.584;9.938;2022-12-05T07:08:41;96.80;;;29.60;;
3022;SDS011;1521;53.584;9.938;2022-12-05T07:11:07;84.37;;;28.40;;
3022;SDS011;1521;53.584;9.938;2022-12-05T07:13:33;82.00;;;27.50;;
3022;SDS011;1521;53.584;9.938;2022-12-05T07:15:59;94.73;;;28.50;;
3022;SDS011;1521;53.584;9.938;2022-12-05T07:18:24;76.40;;;26.37;;
3022;SDS011;1521;53.584;9.938;2022-12-05T07:20:57;100.50;;;28.50;;
3022;SDS011;1521;53.584;9.938;2022-12-05T07:23:31;87.17;;;27.97;;
3022;SDS011;1521;53.584;9.938;2022-12-05T07:25:57;104.10;;;33.30;;
3022;SDS011;1521;53.584;9.938;2022-12-05T07:28:23;88.83;;;27.30;;
3022;SDS011;1521;53.584;9.938;2022-12-05T07:30:57;85.53;;;28.30;;
3022;SDS011;1521;53.584;9.938;2022-12-05T07:33:24;81.40;;;28.93;;
3022;SDS011;1521;53.584;9.938;2022-12-05T07:35:49;79.53;;;27.53;;
3022;SDS011;1521;53.584;9.938;2022-12-05T07:38:15;91.70;;;27.77;;
3022;SDS011;1521;53.584;9.938;2022-12-05T07:40:40;79.00;;;27.40;;
3022;SDS011;1521;53.584;9.938;2022-12-05T07:43:06;91.13;;;27.90;;
3022;SDS011;1521;53.584;9.938;2022-12-05T07:45:32;93.87;;;28.97;;
3022;SDS011;1521;53.584;9.938;2022-12-05T07:47:59;90.90;;;30.00;;
3022;SDS011;1521;53.584;9.938;2022-12-05T07:50:25;86.07;;;28.93;;
3022;SDS011;1521;53.584;9.938;2022-12-05T07:52:50;87.23;;;28.47;;
3022;SDS011;1521;53.584;9.938;2022-12-05T07:55:16;81.23;;;27.83;;
3022;SDS011;1521;53.584;9.938;2022-12-05T07:57:42;86.83;;;28.10;;
3022;SDS011;1521;53.584;9.938;2022-12-05T08:00:08;78.77;;;27.37;;
3022;SDS011;1521;53.584;9.938;2022-12-05T08:02:34;79.33;;;26.37;;
3022;SDS011;1521;53.584;9.938;2022-12-05T08:04:59;71.37;;;26.77;;
3022;SDS011;1521;53.584;9.938;2022-12-05T08:07:25;63.87;;;24.60;;
3022;SDS011;1521;53.584;9.938;2022-12-05T08:09:50;82.63;;;26.87;;
3022;SDS011;1521;53.584;9.938;2022-12-05T08:12:16;68.57;;;25.33;;
3022;SDS011;1521;53.584;9.938;2022-12-05T08:14:41;66.77;;;24.03;;
3022;SDS011;1521;53.584;9.938;2022-12-05T08:17:07;71.43;;;24.87;;
3022;SDS011;1521;53.584;9.938;2022-12-05T08:19:32;71.37;;;26.33;;
3022;SDS011;1521;53.584;9.938;2022-12-05T08:21:58;76.83;;;24.70;;
3022;SDS011;1521;53.584;9.938;2022-12-05T08:24:24;65.33;;;26.00;;
3022;SDS011;1521;53.584;9.938;2022-12-05T08:26:49;69.37;;;24.43;;
3022;SDS011;1521;53.584;9.938;2022-12-05T08:29:18;64.93;;;25.60;;
3022;SDS011;1521;53.584;9.938;2022-12-05T08:31:46;71.37;;;27.60;;
3022;SDS011;1521;53.584;9.938;2022-12-05T08:34:13;70.70;;;24.70;;
3022;SDS011;1521;53.584;9.938;2022-12-05T08:36:40;64.87;;;24.60;;
3022;SDS011;1521;53.584;9.938;2022-12-05T08:39:07;68.60;;;25.70;;
3022;SDS011;1521;53.584;9.938;2022-12-05T08:41:36;76.07;;;25.50;;
3022;SDS011;1521;53.584;9.938;2022-12-05T08:44:03;72.43;;;24.27;;
3022;SDS011;1521;53.584;9.938;2022-12-05T08:46:30;61.50;;;24.43;;
3022;SDS011;1521;53.584;9.938;2022-12-05T08:48:58;66.47;;;25.00;;
3022;SDS011;1521;53.584;9.938;2022-12-05T08:51:23;66.20;;;24.23;;
3022;SDS011;1521;53.584;9.938;2022-12-05T08:53:49;71.20;;;25.53;;
3022;SDS011;1521;53.584;9.938;2022-12-05T08:56:14;65.13;;;25.90;;
3022;SDS011;1521;53.584;9.938;2022-12-05T08:58:40;75.23;;;25.93;;
3022;SDS011;1521;53.584;9.938;2022-12-05T09:01:10;71.80;;;26.03;;
3022;SDS011;1521;53.584;9.938;2022-12-05T09:03:41;79.37;;;25.17;;
3022;SDS011;1521;53.584;9.938;2022-12-05T09:06:11;67.73;;;24.70;;
3022;SDS011;1521;53.584;9.938;2022-12-05T09:08:39;67.80;;;24.77;;
3022;SDS011;1521;53.584;9.938;2022-12-05T09:11:10;71.90;;;26.30;;
3022;SDS011;1521;53.584;9.938;2022-12-05T09:13:37;64.80;;;24.10;;
3022;SDS011;1521;53.584;9.938;2022-12-05T09:16:10;68.97;;;23.80;;
3022;SDS011;1521;53.584;9.938;2022-12-05T09:18:38;62.47;;;23.77;;
3022;SDS011;1521;53.584;9.938;2022-12-05T09:21:07;64.00;;;24.33;;
3022;SDS011;1521;53.584;9.938;2022-12-05T09:23:37;62.17;;;22.63;;
3022;SDS011;1521;53.584;9.938;2022-12-05T09:26:03;66.83;;;24.00;;
3022;SDS011;1521;53.584;9.938;2022-12-05T09:28:30;65.03;;;21.73;;
3022;SDS011;1521;53.584;9.938;2022-12-05T09:30:58;66.23;;;22.97;;
3022;SDS011;1521;53.584;9.938;2022-12-05T09:33:26;66.73;;;23.30;;
3022;SDS011;1521;53.584;9.938;2022-12-05T09:35:52;77.97;;;25.43;;
3022;SDS011;1521;53.584;9.938;2022-12-05T09:38:18;63.33;;;22.80;;
3022;SDS011;1521;53.584;9.938;2022-12-05T09:40:44;73.13;;;24.70;;
3022;SDS011;1521;53.584;9.938;2022-12-05T09:43:20;78.20;;;23.47;;
3022;SDS011;1521;53.584;9.938;2022-12-05T09:46:00;66.37;;;21.90;;
3022;SDS011;1521;53.584;9.938;2022-12-05T09:48:31;60.87;;;21.83;;
3022;SDS011;1521;53.584;9.938;2022-12-05T09:51:01;57.23;;;21.43;;
3022;SDS011;1521;53.584;9.938;2022-12-05T09:58:57;52.53;;;20.00;;
3022;SDS011;1521;53.584;9.938;2022-12-05T10:09:39;62.93;;;22.97;;
3022;SDS011;1521;53.584;9.938;2022-12-05T10:15:03;54.67;;;19.80;;
3022;SDS011;1521;53.584;9.938;2022-12-05T10:17:34;56.37;;;20.47;;
3022;SDS011;1521;53.584;9.938;2022-12-05T10:20:09;49.90;;;18.53;;
3022;SDS011;1521;53.584;9.938;2022-12-05T10:25:18;50.00;;;19.23;;
3022;SDS011;1521;53.584;9.938;2022-12-05T10:27:52;57.27;;;20.73;;
3022;SDS011;1521;53.584;9.938;2022-12-05T10:30:22;56.10;;;21.70;;
3022;SDS011;1521;53.584;9.938;2022-12-05T10:32:50;54.93;;;20.90;;
3022;SDS011;1521;53.584;9.938;2022-12-05T10:37:51;53.87;;;21.53;;
3022;SDS011;1521;53.584;9.938;2022-12-05T10:40:19;58.27;;;21.37;;
3022;SDS011;1521;53.584;9.938;2022-12-05T10:42:45;54.83;;;21.17;;
3022;SDS011;1521;53.584;9.938;2022-12-05T10:45:19;54.57;;;22.10;;
3022;SDS011;1521;53.584;9.938;2022-12-05T10:47:48;58.43;;;20.47;;
3022;SDS011;1521;53.584;9.938;2022-12-05T10:50:34;54.33;;;21.93;;
3022;SDS011;1521;53.584;9.938;2022-12-05T10:53:01;49.70;;;20.03;;
3022;SDS011;1521;53.584;9.938;2022-12-05T10:56:01;57.20;;;21.93;;
3022;SDS011;1521;53.584;9.938;2022-12-05T10:58:23;55.57;;;20.90;;
3022;SDS011;1521;53.584;9.938;2022-12-05T11:00:51;62.10;;;20.40;;
3022;SDS011;1521;53.584;9.938;2022-12-05T11:03:28;56.00;;;21.50;;
3022;SDS011;1521;53.584;9.938;2022-12-05T11:05:57;61.10;;;21.33;;
3022;SDS011;1521;53.584;9.938;2022-12-05T11:08:26;54.70;;;21.77;;
3022;SDS011;1521;53.584;9.938;2022-12-05T11:11:04;64.53;;;20.77;;
3022;SDS011;1521;53.584;9.938;2022-12-05T11:13:31;56.10;;;20.73;;
3022;SDS011;1521;53.584;9.938;2022-12-05T11:15:58;61.70;;;22.20;;
3022;SDS011;1521;53.584;9.938;2022-12-05T11:20:51;54.30;;;21.20;;
3022;SDS011;1521;53.584;9.938;2022-12-05T11:23:25;52.50;;;21.07;;
3022;SDS011;1521;53.584;9.938;2022-12-05T11:25:54;50.90;;;21.00;;
3022;SDS011;1521;53.584;9.938;2022-12-05T11:31:04;52.10;;;21.60;;
3022;SDS011;1521;53.584;9.938;2022-12-05T11:33:34;49.77;;;19.10;;
3022;SDS011;1521;53.584;9.938;2022-12-05T11:38:46;53.00;;;21.47;;
3022;SDS011;1521;53.584;9.938;2022-12-05T11:41:15;49.83;;;21.10;;
3022;SDS011;1521;53.584;9.938;2022-12-05T12:14:43;44.73;;;18.50;;
3022;SDS011;1521;53.584;9.938;2022-12-05T12:19:47;45.00;;;19.90;;
3022;SDS011;1521;53.584;9.938;2022-12-05T12:34:21;39.40;;;17.87;;
3022;SDS011;1521;53.584;9.938;2022-12-05T12:37:16;45.80;;;18.60;;
3022;SDS011;1521;53.584;9.938;2022-12-05T12:40:12;39.30;;;18.70;;
3022;SDS011;1521;53.584;9.938;2022-12-05T12:50:51;44.90;;;18.70;;
3022;SDS011;1521;53.584;9.938;2022-12-05T12:59:27;42.00;;;17.83;;
3022;SDS011;1521;53.584;9.938;2022-12-05T13:02:09;47.37;;;20.47;;
3022;SDS011;1521;53.584;9.938;2022-12-05T13:05:01;43.27;;;18.03;;
3022;SDS011;1521;53.584;9.938;2022-12-05T13:07:45;43.37;;;17.70;;
3022;SDS011;1521;53.584;9.938;2022-12-05T13:10:28;36.40;;;16.80;;
3022;SDS011;1521;53.584;9.938;2022-12-05T13:12:58;37.23;;;17.23;;
3022;SDS011;1521;53.584;9.938;2022-12-05T13:17:58;43.50;;;19.00;;
3022;SDS011;1521;53.584;9.938;2022-12-05T13:20:26;44.00;;;18.30;;
3022;SDS011;1521;53.584;9.938;2022-12-05T13:22:56;45.87;;;18.53;;
3022;SDS011;1521;53.584;9.938;2022-12-05T13:25:23;41.90;;;18.00;;
3022;SDS011;1521;53.584;9.938;2022-12-05T13:27:59;40.93;;;18.03;;
3022;SDS011;1521;53.584;9.938;2022-12-05T13:30:27;48.47;;;19.53;;
3022;SDS011;1521;53.584;9.938;2022-12-05T13:33:03;40.20;;;19.80;;
3022;SDS011;1521;53.584;9.938;2022-12-05T13:35:34;43.23;;;19.20;;
3022;SDS011;1521;53.584;9.938;2022-12-05T13:38:30;42.93;;;18.13;;
3022;SDS011;1521;53.584;9.938;2022-12-05T13:41:20;37.03;;;18.17;;
3022;SDS011;1521;53.584;9.938;2022-12-05T13:44:05;43.97;;;18.40;;
3022;SDS011;1521;53.584;9.938;2022-12-05T13:46:37;44.00;;;18.87;;
3022;SDS011;1521;53.584;9.938;2022-12-05T13:52:06;51.30;;;24.63;;
3022;SDS011;1521;53.584;9.938;2022-12-05T13:54:40;43.37;;;21.17;;
3022;SDS011;1521;53.584;9.938;2022-12-05T14:12:59;36.77;;;17.50;;
3022;SDS011;1521;53.584;9.938;2022-12-05T14:15:26;38.93;;;17.90;;
3022;SDS011;1521;53.584;9.938;2022-12-05T14:17:59;44.87;;;19.33;;
3022;SDS011;1521;53.584;9.938;2022-12-05T14:20:46;33.07;;;16.80;;
3022;SDS011;1521;53.584;9.938;2022-12-05T14:23:15;41.00;;;17.00;;
3022;SDS011;1521;53.584;9.938;2022-12-05T14:31:31;32.77;;;16.23;;
3022;SDS011;1521;53.584;9.938;2022-12-05T14:45:02;26.97;;;14.20;;
3022;SDS011;1521;53.584;9.938;2022-12-05T14:47:50;34.63;;;15.97;;
3022;SDS011;1521;53.584;9.938;2022-12-05T14:55:39;28.33;;;14.73;;
3022;SDS011;1521;53.584;9.938;2022-12-05T15:06:54;38.43;;;20.00;;
3022;SDS011;1521;53.584;9.938;2022-12-05T15:11:54;28.00;;;15.50;;
3022;SDS011;1521;53.584;9.938;2022-12-05T15:14:21;29.53;;;14.33;;
3022;SDS011;1521;53.584;9.938;2022-12-05T15:16:49;30.73;;;14.40;;
3022;SDS011;1521;53.584;9.938;2022-12-05T15:19:28;27.70;;;13.53;;
3022;SDS011;1521;53.584;9.938;2022-12-05T15:22:10;28.00;;;13.70;;
3022;SDS011;1521;53.584;9.938;2022-12-05T15:24:39;26.37;;;13.23;;
3022;SDS011;1521;53.584;9.938;2022-12-05T15:27:07;26.73;;;14.03;;
3022;SDS011;1521;53.584;9.938;2022-12-05T15:29:38;25.77;;;13.80;;
3022;SDS011;1521;53.584;9.938;2022-12-05T15:32:13;32.30;;;15.67;;
3022;SDS011;1521;53.584;9.938;2022-12-05T15:34:43;30.77;;;14.83;;
3022;SDS011;1521;53.584;9.938;2022-12-05T15:37:30;29.77;;;14.90;;
3022;SDS011;1521;53.584;9.938;2022-12-05T15:40:00;27.00;;;13.80;;
3022;SDS011;1521;53.584;9.938;2022-12-05T15:42:52;33.20;;;16.00;;
3022;SDS011;1521;53.584;9.938;2022-12-05T15:45:21;29.43;;;14.57;;
3022;SDS011;1521;53.584;9.938;2022-12-05T15:55:31;27.23;;;14.70;;
3022;SDS011;1521;53.584;9.938;2022-12-05T15:58:04;30.50;;;14.50;;
3022;SDS011;1521;53.584;9.938;2022-12-05T16:00:36;24.93;;;12.83;;
3022;SDS011;1521;53.584;9.938;2022-12-05T16:06:04;24.80;;;12.60;;
3022;SDS011;1521;53.584;9.938;2022-12-05T16:08:42;24.40;;;12.80;;
3022;SDS011;1521;53.584;9.938;2022-12-05T16:11:09;26.67;;;12.83;;
3022;SDS011;1521;53.584;9.938;2022-12-05T16:13:40;23.47;;;12.97;;
3022;SDS011;1521;53.584;9.938;2022-12-05T16:16:07;23.20;;;11.37;;
3022;SDS011;1521;53.584;9.938;2022-12-05T16:18:40;25.83;;;13.20;;
3022;SDS011;1521;53.584;9.938;2022-12-05T16:24:21;20.37;;;11.63;;
3022;SDS011;1521;53.584;9.938;2022-12-05T16:27:02;21.37;;;11.23;;
3022;SDS011;1521;53.584;9.938;2022-12-05T16:35:45;24.30;;;13.03;;
3022;SDS011;1521;53.584;9.938;2022-12-05T16:38:23;22.60;;;11.50;;
3022;SDS011;1521;53.584;9.938;2022-12-05T16:45:57;19.73;;;11.57;;
3022;SDS011;1521;53.584;9.938;2022-12-05T16:48:39;22.63;;;11.97;;
3022;SDS011;1521;53.584;9.938;2022-12-05T16:53:43;20.10;;;12.00;;
3022;SDS011;1521;53.584;9.938;2022-12-05T16:56:23;24.37;;;12.20;;
3022;SDS011;1521;53.584;9.938;2022-12-05T16:58:49;15.93;;;10.17;;
3022;SDS011;1521;53.584;9.938;2022-12-05T17:01:16;24.20;;;12.60;;
3022;SDS011;1521;53.584;9.938;2022-12-05T17:03:44;20.93;;;11.50;;
3022;SDS011;1521;53.584;9.938;2022-12-05T17:06:10;21.10;;;11.87;;
3022;SDS011;1521;53.584;9.938;2022-12-05T17:08:36;23.60;;;12.30;;
3022;SDS011;1521;53.584;9.938;2022-12-05T17:11:02;21.53;;;11.73;;
3022;SDS011;1521;53.584;9.938;2022-12-05T17:13:29;22.00;;;11.60;;
3022;SDS011;1521;53.584;9.938;2022-12-05T17:15:56;21.87;;;11.17;;
3022;SDS011;1521;53.584;9.938;2022-12-05T17:18:21;20.50;;;12.43;;
3022;SDS011;1521;53.584;9.938;2022-12-05T17:20:51;22.93;;;12.13;;
3022;SDS011;1521;53.584;9.938;2022-12-05T17:23:18;22.50;;;12.60;;
3022;SDS011;1521;53.584;9.938;2022-12-05T17:25:48;24.70;;;12.63;;
3022;SDS011;1521;53.584;9.938;2022-12-05T17:28:18;22.37;;;12.40;;
3022;SDS011;1521;53.584;9.938;2022-12-05T17:30:44;22.17;;;12.47;;
3022;SDS011;1521;53.584;9.938;2022-12-05T17:33:13;20.50;;;11.83;;
3022;SDS011;1521;53.584;9.938;2022-12-05T17:35:41;22.20;;;12.47;;
3022;SDS011;1521;53.584;9.938;2022-12-05T17:38:07;21.03;;;12.07;;
3022;SDS011;1521;53.584;9.938;2022-12-05T17:40:34;28.87;;;14.17;;
3022;SDS011;1521;53.584;9.938;2022-12-05T17:43:01;20.60;;;11.93;;
3022;SDS011;1521;53.584;9.938;2022-12-05T17:45:27;23.60;;;12.50;;
3022;SDS011;1521;53.584;9.938;2022-12-05T17:47:53;27.10;;;14.83;;
3022;SDS011;1521;53.584;9.938;2022-12-05T17:50:20;25.13;;;14.00;;
3022;SDS011;1521;53.584;9.938;2022-12-05T17:52:48;28.90;;;14.67;;
3022;SDS011;1521;53.584;9.938;2022-12-05T17:55:18;26.10;;;14.50;;
3022;SDS011;1521;53.584;9.938;2022-12-05T17:57:47;27.53;;;14.70;;
3022;SDS011;1521;53.584;9.938;2022-12-05T18:00:13;38.57;;;17.70;;
3022;SDS011;1521;53.584;9.938;2022-12-05T18:02:41;29.93;;;16.87;;
3022;SDS011;1521;53.584;9.938;2022-12-05T18:05:08;34.33;;;17.27;;
3022;SDS011;1521;53.584;9.938;2022-12-05T18:07:35;33.00;;;17.40;;
3022;SDS011;1521;53.584;9.938;2022-12-05T18:10:01;38.87;;;17.20;;
3022;SDS011;1521;53.584;9.938;2022-12-05T18:12:28;29.33;;;17.00;;
3022;SDS011;1521;53.584;9.938;2022-12-05T18:14:54;36.13;;;17.33;;
3022;SDS011;1521;53.584;9.938;2022-12-05T18:17:19;38.43;;;18.77;;
3022;SDS011;1521;53.584;9.938;2022-12-05T18:19:45;33.73;;;17.60;;
3022;SDS011;1521;53.584;9.938;2022-12-05T18:22:10;30.33;;;16.63;;
3022;SDS011;1521;53.584;9.938;2022-12-05T18:24:36;31.17;;;16.40;;
3022;SDS011;1521;53.584;9.938;2022-12-05T18:27:02;34.40;;;18.07;;
3022;SDS011;1521;53.584;9.938;2022-12-05T18:29:27;38.67;;;18.37;;